createdAt,value
2023-05-07T00:00:23.949Z,100804.73
2023-05-07T00:01:26.018Z,100803.05
2023-05-07T00:02:28.326Z,100804.64
2023-05-07T00:03:30.863Z,100794.07
2023-05-07T00:04:33.262Z,100804.73
2023-05-07T00:05:35.593Z,100801.33
2023-05-07T00:06:38.371Z,100805.80
2023-05-07T00:07:41.789Z,100797.93
2023-05-07T00:08:43.970Z,100794.41
2023-05-07T00:09:46.074Z,100798.88
2023-05-07T00:10:48.346Z,100799.73
2023-05-07T00:11:51.002Z,100795.27
2023-05-07T00:12:53.360Z,100801.45
2023-05-07T00:13:56.482Z,100799.61
2023-05-07T00:14:58.795Z,100796.13
2023-05-07T00:16:01.325Z,100796.13
2023-05-07T00:17:03.667Z,100804.20
2023-05-07T00:18:05.770Z,100800.06
2023-05-07T00:19:07.925Z,100802.08
2023-05-07T00:20:12.228Z,100802.94
2023-05-07T00:21:14.787Z,100798.77
2023-05-07T00:22:17.858Z,100791.96
2023-05-07T00:23:19.972Z,100791.19
2023-05-07T00:24:23.161Z,100795.78
2023-05-07T00:25:25.689Z,100796.64
2023-05-07T00:26:28.091Z,100797.50
2023-05-07T00:27:30.392Z,100792.05
2023-05-07T00:28:33.060Z,100796.31
2023-05-07T00:29:35.364Z,100793.56
2023-05-07T00:30:37.870Z,100792.58
2023-05-07T00:31:40.795Z,100786.30
2023-05-07T00:32:42.954Z,100793.23
2023-05-07T00:33:46.303Z,100790.56
2023-05-07T00:34:48.911Z,100784.50
2023-05-07T00:35:51.182Z,100789.09
2023-05-07T00:36:53.634Z,100785.56
2023-05-07T00:37:57.863Z,100781.92
2023-05-07T00:39:01.203Z,100787.25
2023-05-07T00:40:05.133Z,100786.42
2023-05-07T00:41:07.335Z,100780.33
2023-05-07T00:42:12.383Z,100775.12
2023-05-07T00:43:14.736Z,100782.37
2023-05-07T00:44:18.729Z,100786.92
2023-05-07T00:45:22.156Z,100783.32
2023-05-07T00:46:24.991Z,100778.84
2023-05-07T00:47:27.776Z,100784.18
2023-05-07T00:48:30.572Z,100786.92
2023-05-07T00:49:40.483Z,100780.00
2023-05-07T00:50:44.006Z,100784.59
2023-05-07T00:51:47.045Z,100783.20
2023-05-07T00:52:50.328Z,100782.55
2023-05-07T00:53:53.581Z,100781.69
2023-05-07T00:54:56.097Z,100784.36
2023-05-07T00:55:58.401Z,100780.75
2023-05-07T00:57:01.559Z,100782.55
2023-05-07T00:58:04.864Z,100779.03
2023-05-07T00:59:07.085Z,100791.52
2023-05-07T01:00:12.488Z,100781.61
2023-05-07T01:01:14.944Z,100785.98
2023-05-07T01:02:17.322Z,100785.01
2023-05-07T01:03:19.521Z,100785.87
2023-05-07T01:04:21.829Z,100792.80
2023-05-07T01:05:25.766Z,100784.80
2023-05-07T01:06:30.104Z,100787.47
2023-05-07T01:07:33.806Z,100800.91
2023-05-07T01:08:36.711Z,100795.66
2023-05-07T01:09:39.409Z,100798.45
2023-05-07T01:10:43.829Z,100795.78
2023-05-07T01:11:47.920Z,100801.97
2023-05-07T01:12:50.910Z,100801.11
2023-05-07T01:13:54.103Z,100800.98
2023-05-07T01:14:58.621Z,100801.11
2023-05-07T01:16:01.358Z,100807.38
2023-05-07T01:17:03.687Z,100803.00
2023-05-07T01:18:06.047Z,100807.50
2023-05-07T01:19:11.462Z,100813.56
2023-05-07T01:20:14.745Z,100812.63
2023-05-07T01:21:18.709Z,100814.42
2023-05-07T01:23:46.803Z,100808.45
2023-05-07T01:24:49.579Z,100815.58
2023-05-07T01:25:53.656Z,100818.36
2023-05-07T01:26:56.277Z,100813.89
2023-05-07T01:27:58.558Z,100814.63
2023-05-07T01:29:02.692Z,100810.99
2023-05-07T01:30:08.222Z,100811.23
2023-05-07T01:31:11.736Z,100818.56
2023-05-07T01:32:17.066Z,100811.64
2023-05-07T01:33:21.827Z,100818.97
2023-05-07T01:34:26.053Z,100820.89
2023-05-07T01:35:31.472Z,100821.09
2023-05-07T01:36:34.111Z,100807.78
2023-05-07T01:37:36.694Z,100816.72
2023-05-07T01:38:40.399Z,100822.05
2023-05-07T01:39:43.324Z,100827.28
2023-05-07T01:40:46.283Z,100815.66
2023-05-07T01:41:49.332Z,100818.23
2023-05-07T01:42:52.758Z,100825.24
2023-05-07T01:43:55.619Z,100823.44
2023-05-07T01:44:58.134Z,100824.42
2023-05-07T01:46:00.864Z,100824.62
2023-05-07T01:47:03.545Z,100825.68
2023-05-07T01:48:07.309Z,100822.16
2023-05-07T01:49:10.153Z,100825.77
2023-05-07T01:50:13.712Z,100821.42
2023-05-07T01:51:16.683Z,100819.78
2023-05-07T01:52:19.031Z,100820.77
2023-05-07T01:53:22.097Z,100825.11
2023-05-07T01:54:28.133Z,100825.11
2023-05-07T01:55:31.207Z,100826.95
2023-05-07T01:56:34.588Z,100823.50
2023-05-07T01:57:37.492Z,100828.95
2023-05-07T01:58:41.497Z,100825.55
2023-05-07T01:59:44.155Z,100830.87
2023-05-07T02:00:46.719Z,100822.88
2023-05-07T02:01:48.962Z,100834.27
2023-05-07T02:02:52.165Z,100829.89
2023-05-07T02:04:00.103Z,100828.95
2023-05-07T02:05:04.076Z,100828.83
2023-05-07T02:06:06.894Z,100835.13
2023-05-07T02:07:11.406Z,100839.59
2023-05-07T02:08:14.577Z,100830.01
2023-05-07T02:09:18.760Z,100830.95
2023-05-07T02:10:23.290Z,100832.67
2023-05-07T02:11:25.435Z,100830.87
2023-05-07T02:12:28.579Z,100834.39
2023-05-07T02:13:33.361Z,100834.39
2023-05-07T02:14:36.481Z,100837.88
2023-05-07T02:15:38.676Z,100837.14
2023-05-07T02:16:41.357Z,100839.91
2023-05-07T02:18:01.642Z,100842.66
2023-05-07T02:19:04.083Z,100847.98
2023-05-07T02:20:08.216Z,100846.18
2023-05-07T02:21:10.878Z,100846.18
2023-05-07T02:22:13.170Z,100851.31
2023-05-07T02:23:15.417Z,100845.32
2023-05-07T02:24:17.595Z,100848.09
2023-05-07T02:25:20.438Z,100852.77
2023-05-07T02:26:22.854Z,100848.38
2023-05-07T02:27:25.022Z,100847.44
2023-05-07T02:28:27.205Z,100854.48
2023-05-07T02:29:31.772Z,100855.30
2023-05-07T02:30:34.381Z,100848.19
2023-05-07T02:31:36.612Z,100856.95
2023-05-07T02:32:39.120Z,100849.78
2023-05-07T02:33:41.680Z,100851.39
2023-05-07T02:34:44.701Z,100853.23
2023-05-07T02:35:47.553Z,100856.83
2023-05-07T02:36:51.365Z,100855.11
2023-05-07T02:37:55.493Z,100849.78
2023-05-07T02:38:59.168Z,100861.30
2023-05-07T02:40:01.358Z,100850.64
2023-05-07T02:41:03.625Z,100851.50
2023-05-07T02:42:05.680Z,100853.31
2023-05-07T02:43:08.398Z,100863.02
2023-05-07T02:44:10.911Z,100861.30
2023-05-07T02:45:13.912Z,100853.42
2023-05-07T02:46:17.868Z,100862.35
2023-05-07T02:47:23.052Z,100861.69
2023-05-07T02:48:25.273Z,100865.41
2023-05-07T02:49:27.427Z,100867.33
2023-05-07T02:50:31.079Z,100866.27
2023-05-07T02:51:33.198Z,100871.51
2023-05-07T02:52:37.237Z,100868.73
2023-05-07T02:53:39.541Z,100872.25
2023-05-07T02:54:42.131Z,100868.73
2023-05-07T02:55:44.687Z,100871.51
2023-05-07T02:56:46.876Z,100873.39
2023-05-07T02:57:48.941Z,100875.31
2023-05-07T02:58:51.210Z,100871.79
2023-05-07T02:59:53.776Z,100868.27
2023-05-07T03:00:56.868Z,100872.65
2023-05-07T03:02:10.288Z,100873.51
2023-05-07T03:03:12.842Z,100873.39
2023-05-07T03:04:15.909Z,100874.25
2023-05-07T03:05:18.780Z,100869.98
2023-05-07T03:06:21.432Z,100867.21
2023-05-07T03:07:24.667Z,100866.39
2023-05-07T03:08:26.944Z,100873.31
2023-05-07T03:09:29.115Z,100866.19
2023-05-07T03:10:31.732Z,100866.39
2023-05-07T03:11:33.921Z,100874.45
2023-05-07T03:12:36.136Z,100874.56
2023-05-07T03:13:38.764Z,100871.91
2023-05-07T03:14:41.360Z,100868.38
2023-05-07T03:15:44.102Z,100876.17
2023-05-07T03:16:46.588Z,100879.58
2023-05-07T03:17:49.133Z,100875.97
2023-05-07T03:18:51.729Z,100873.39
2023-05-07T03:19:54.491Z,100876.17
2023-05-07T03:20:57.680Z,100880.75
2023-05-07T03:22:00.481Z,100886.07
2023-05-07T03:23:03.278Z,100892.22
2023-05-07T03:24:06.458Z,100893.94
2023-05-07T03:25:11.118Z,100886.81
2023-05-07T03:26:13.810Z,100885.09
2023-05-07T03:27:16.634Z,100879.77
2023-05-07T03:28:19.616Z,100883.49
2023-05-07T03:29:24.180Z,100881.89
2023-05-07T03:30:27.020Z,100887.20
2023-05-07T03:31:30.453Z,100883.80
2023-05-07T03:32:33.451Z,100881.89
2023-05-07T03:33:36.055Z,100881.89
2023-05-07T03:34:38.734Z,100884.35
2023-05-07T03:35:42.416Z,100882.55
2023-05-07T03:36:46.738Z,100887.02
2023-05-07T03:37:49.155Z,100888.81
2023-05-07T03:38:51.328Z,100892.34
2023-05-07T03:39:55.491Z,100894.88
2023-05-07T03:40:58.064Z,100902.04
2023-05-07T03:42:00.571Z,100895.00
2023-05-07T03:43:04.207Z,100892.34
2023-05-07T03:44:07.138Z,100897.66
2023-05-07T03:45:09.857Z,100901.92
2023-05-07T03:46:13.033Z,100900.98
2023-05-07T03:47:16.631Z,100903.53
2023-05-07T03:48:19.923Z,100903.53
2023-05-07T03:49:22.593Z,100903.45
2023-05-07T03:50:25.237Z,100905.14
2023-05-07T03:51:28.530Z,100913.05
2023-05-07T03:52:30.726Z,100905.89
2023-05-07T03:53:33.928Z,100908.55
2023-05-07T03:54:38.390Z,100912.93
2023-05-07T03:55:40.569Z,100911.98
2023-05-07T03:56:43.363Z,100909.21
2023-05-07T03:57:45.672Z,100911.80
2023-05-07T03:58:49.068Z,100917.95
2023-05-07T03:59:51.284Z,100917.00
2023-05-07T04:00:55.419Z,100913.40
2023-05-07T04:01:59.573Z,100909.77
2023-05-07T04:03:02.665Z,100909.77
2023-05-07T04:04:07.855Z,100914.34
2023-05-07T04:05:10.834Z,100917.95
2023-05-07T04:06:16.751Z,100913.59
2023-05-07T04:07:19.965Z,100923.50
2023-05-07T04:08:24.119Z,100920.05
2023-05-07T04:09:28.140Z,100918.45
2023-05-07T04:10:32.855Z,100916.77
2023-05-07T04:11:36.373Z,100921.11
2023-05-07T04:12:39.801Z,100916.53
2023-05-07T04:13:42.712Z,100918.25
2023-05-07T04:14:45.699Z,100920.17
2023-05-07T04:15:48.874Z,100919.42
2023-05-07T04:16:53.447Z,100915.13
2023-05-07T04:17:55.710Z,100918.84
2023-05-07T04:18:58.793Z,100914.69
2023-05-07T04:20:01.355Z,100918.40
2023-05-07T04:21:04.357Z,100918.40
2023-05-07T04:22:07.614Z,100917.53
2023-05-07T04:23:09.755Z,100921.06
2023-05-07T04:24:12.052Z,100912.22
2023-05-07T04:25:14.384Z,100915.63
2023-05-07T04:26:17.788Z,100923.53
2023-05-07T04:27:21.019Z,100910.97
2023-05-07T04:28:24.799Z,100916.30
2023-05-07T04:29:27.311Z,100913.62
2023-05-07T04:30:30.240Z,100908.19
2023-05-07T04:31:32.604Z,100911.83
2023-05-07T04:32:36.198Z,100912.69
2023-05-07T04:33:38.647Z,100909.25
2023-05-07T04:34:42.429Z,100914.57
2023-05-07T04:35:46.034Z,100907.56
2023-05-07T04:36:48.859Z,100914.77
2023-05-07T04:37:52.189Z,100910.49
2023-05-07T04:38:54.813Z,100909.75
2023-05-07T04:39:57.346Z,100907.20
2023-05-07T04:41:06.824Z,100909.86
2023-05-07T04:43:24.141Z,100908.42
2023-05-07T04:44:26.771Z,100908.49
2023-05-07T04:45:31.216Z,100914.86
2023-05-07T04:46:35.887Z,100921.16
2023-05-07T04:47:39.284Z,100917.72
2023-05-07T04:48:42.562Z,100913.45
2023-05-07T04:49:44.847Z,100913.64
2023-05-07T04:50:49.381Z,100909.37
2023-05-07T04:51:51.897Z,100915.55
2023-05-07T04:52:55.320Z,100912.89
2023-05-07T04:53:59.353Z,100909.48
2023-05-07T04:56:14.675Z,100908.88
2023-05-07T04:57:18.634Z,100915.18
2023-05-07T04:58:25.507Z,100905.48
2023-05-07T04:59:29.595Z,100902.07
2023-05-07T05:00:35.655Z,100903.01
2023-05-07T05:01:39.484Z,100904.17
2023-05-07T05:03:59.247Z,100898.47
2023-05-07T05:05:02.148Z,100914.44
2023-05-07T05:06:04.956Z,100902.94
2023-05-07T05:07:08.692Z,100906.45
2023-05-07T05:08:14.099Z,100900.09
2023-05-07T05:09:17.669Z,100897.32
2023-05-07T05:10:23.269Z,100896.30
2023-05-07T05:11:25.735Z,100890.13
2023-05-07T05:12:28.304Z,100893.72
2023-05-07T05:13:31.628Z,100879.67
2023-05-07T05:14:34.363Z,100895.63
2023-05-07T05:16:48.352Z,100892.38
2023-05-07T05:17:50.441Z,100890.50
2023-05-07T05:18:54.262Z,100893.16
2023-05-07T05:19:58.411Z,100892.22
2023-05-07T05:21:00.720Z,100891.25
2023-05-07T05:22:03.238Z,100887.84
2023-05-07T05:23:05.346Z,100888.59
2023-05-07T05:24:08.784Z,100885.93
2023-05-07T05:26:23.250Z,100889.71
2023-05-07T05:27:25.328Z,100886.23
2023-05-07T05:28:27.600Z,100889.75
2023-05-07T05:29:30.234Z,100891.55
2023-05-07T05:30:32.879Z,100894.20
2023-05-07T05:31:35.653Z,100894.09
2023-05-07T05:32:37.981Z,100887.17
2023-05-07T05:33:40.789Z,100889.83
2023-05-07T05:34:44.013Z,100891.44
2023-05-07T05:35:46.849Z,100893.23
2023-05-07T05:36:50.771Z,100880.80
2023-05-07T05:37:54.938Z,100886.12
2023-05-07T05:38:59.048Z,100886.05
2023-05-07T05:40:01.307Z,100878.92
2023-05-07T05:41:04.473Z,100879.86
2023-05-07T05:42:07.120Z,100881.66
2023-05-07T05:43:12.859Z,100883.38
2023-05-07T05:44:15.163Z,100886.91
2023-05-07T05:45:17.747Z,100878.14
2023-05-07T05:46:21.222Z,100882.60
2023-05-07T05:47:25.458Z,100882.71
2023-05-07T05:48:29.986Z,100882.71
2023-05-07T05:50:49.680Z,100889.94
2023-05-07T05:51:53.344Z,100882.60
2023-05-07T05:52:56.881Z,100878.92
2023-05-07T05:53:59.972Z,100884.13
2023-05-07T05:55:03.574Z,100885.74
2023-05-07T05:56:14.041Z,100884.69
2023-05-07T05:57:18.445Z,100879.30
2023-05-07T05:58:20.984Z,100883.56
2023-05-07T05:59:25.154Z,100882.70
2023-05-07T06:00:28.852Z,100888.77
2023-05-07T06:01:33.415Z,100885.25
2023-05-07T06:02:41.052Z,100886.86
2023-05-07T06:03:43.826Z,100887.64
2023-05-07T06:04:48.412Z,100891.91
2023-05-07T06:05:52.552Z,100882.02
2023-05-07T06:06:57.739Z,100890.75
2023-05-07T06:08:00.574Z,100876.39
2023-05-07T06:09:05.802Z,100866.61
2023-05-07T06:11:28.543Z,100876.37
2023-05-07T06:12:30.796Z,100877.06
2023-05-07T06:13:33.058Z,100860.98
2023-05-07T06:14:35.826Z,100875.81
2023-05-07T06:15:38.178Z,100865.06
2023-05-07T06:16:43.699Z,100866.70
2023-05-07T06:17:46.508Z,100880.64
2023-05-07T06:18:48.572Z,100872.48
2023-05-07T06:19:52.856Z,100880.28
2023-05-07T06:20:55.516Z,100883.61
2023-05-07T06:22:00.078Z,100888.73
2023-05-07T06:23:05.290Z,100881.69
2023-05-07T06:24:10.028Z,100878.91
2023-05-07T06:25:14.493Z,100878.72
2023-05-07T06:26:19.347Z,100880.44
2023-05-07T06:27:22.752Z,100879.58
2023-05-07T06:28:25.050Z,100883.10
2023-05-07T06:29:27.496Z,100875.11
2023-05-07T06:30:31.496Z,100885.84
2023-05-07T06:31:36.747Z,100880.52
2023-05-07T06:32:41.544Z,100887.67
2023-05-07T06:33:46.332Z,100893.00
2023-05-07T06:34:48.785Z,100882.23
2023-05-07T06:35:54.634Z,100890.22
2023-05-07T06:36:57.233Z,100887.56
2023-05-07T06:38:07.281Z,100886.62
2023-05-07T06:39:11.183Z,100890.14
2023-05-07T06:40:16.626Z,100889.17
2023-05-07T06:41:20.284Z,100896.30
2023-05-07T06:42:22.538Z,100899.81
2023-05-07T06:44:44.600Z,100893.70
2023-05-07T06:45:48.705Z,100894.41
2023-05-07T06:46:51.979Z,100904.94
2023-05-07T06:47:54.307Z,100900.37
2023-05-07T06:48:56.997Z,100902.09
2023-05-07T06:49:59.219Z,100900.17
2023-05-07T06:51:04.217Z,100896.56
2023-05-07T06:52:06.851Z,100911.48
2023-05-07T06:53:09.049Z,100905.22
2023-05-07T06:54:12.636Z,100906.82
2023-05-07T06:55:16.812Z,100910.31
2023-05-07T06:56:23.306Z,100898.63
2023-05-07T06:57:26.125Z,100906.51
2023-05-07T06:59:38.157Z,100904.66
2023-05-07T07:00:40.511Z,100894.91
2023-05-07T07:01:44.019Z,100896.60
2023-05-07T07:02:46.460Z,100892.88
2023-05-07T07:03:50.051Z,100905.13
2023-05-07T07:04:52.198Z,100900.47
2023-05-07T07:05:55.801Z,100898.55
2023-05-07T07:07:00.032Z,100894.83
2023-05-07T07:08:02.307Z,100890.28
2023-05-07T07:09:09.727Z,100891.96
2023-05-07T07:10:12.436Z,100903.48
2023-05-07T07:11:15.935Z,100898.15
2023-05-07T07:12:20.746Z,100886.75
2023-05-07T07:13:24.527Z,100889.30
2023-05-07T07:14:29.554Z,100899.95
2023-05-07T07:17:59.767Z,100895.83
2023-05-07T07:19:02.067Z,100899.33
2023-05-07T07:20:07.736Z,100890.48
2023-05-07T07:21:10.198Z,100889.41
2023-05-07T07:22:12.601Z,100886.64
2023-05-07T07:23:15.026Z,100888.35
2023-05-07T07:25:31.197Z,100897.23
2023-05-07T07:26:33.527Z,100889.30
2023-05-07T07:27:37.550Z,100889.22
2023-05-07T07:28:46.795Z,100883.97
2023-05-07T07:29:51.904Z,100879.50
2023-05-07T07:30:55.709Z,100875.89
2023-05-07T07:31:59.008Z,100894.42
2023-05-07T07:33:02.732Z,100881.11
2023-05-07T07:34:05.541Z,100884.55
2023-05-07T07:35:09.493Z,100887.20
2023-05-07T07:37:41.119Z,100886.28
2023-05-07T07:38:43.330Z,100888.03
2023-05-07T07:39:45.575Z,100894.22
2023-05-07T07:40:48.354Z,100894.22
2023-05-07T07:41:51.125Z,100897.63
2023-05-07T07:42:54.775Z,100883.37
2023-05-07T07:43:58.604Z,100884.31
2023-05-07T07:45:01.250Z,100884.22
2023-05-07T07:46:05.341Z,100877.84
2023-05-07T07:47:09.237Z,100883.81
2023-05-07T07:48:12.292Z,100879.11
2023-05-07T07:51:30.823Z,100877.64
2023-05-07T07:52:34.659Z,100890.87
2023-05-07T07:53:37.074Z,100887.15
2023-05-07T07:54:39.567Z,100885.34
2023-05-07T07:55:42.351Z,100890.55
2023-05-07T07:56:45.680Z,100875.30
2023-05-07T07:57:51.018Z,100880.42
2023-05-07T07:58:56.268Z,100884.81
2023-05-07T07:59:59.147Z,100871.36
2023-05-07T08:01:01.448Z,100874.89
2023-05-07T08:02:03.762Z,100886.41
2023-05-07T08:03:06.808Z,100878.41
2023-05-07T08:04:12.554Z,100882.68
2023-05-07T08:05:16.212Z,100884.48
2023-05-07T08:06:19.652Z,100880.02
2023-05-07T08:07:22.752Z,100879.89
2023-05-07T08:08:32.055Z,100875.34
2023-05-07T08:09:40.823Z,100889.41
2023-05-07T08:10:45.895Z,100890.14
2023-05-07T08:11:52.317Z,100883.86
2023-05-07T08:12:58.540Z,100893.45
2023-05-07T08:14:02.925Z,100882.80
2023-05-07T08:15:06.301Z,100890.67
2023-05-07T08:16:10.188Z,100883.53
2023-05-07T08:17:14.474Z,100896.86
2023-05-07T08:18:18.509Z,100890.58
2023-05-07T08:19:27.101Z,100889.60
2023-05-07T08:20:31.117Z,100897.60
2023-05-07T08:21:35.688Z,100896.66
2023-05-07T08:23:54.235Z,100885.16
2023-05-07T08:25:04.276Z,100877.87
2023-05-07T08:26:11.741Z,100889.31
2023-05-07T08:27:14.059Z,100869.58
2023-05-07T08:28:18.385Z,100870.31
2023-05-07T08:29:22.175Z,100869.23
2023-05-07T08:30:25.236Z,100876.91
2023-05-07T08:32:50.807Z,100864.14
2023-05-07T08:33:57.523Z,100868.42
2023-05-07T08:35:09.167Z,100879.83
2023-05-07T08:36:17.399Z,100871.61
2023-05-07T08:37:24.395Z,100886.67
2023-05-07T08:38:28.190Z,100888.27
2023-05-07T08:39:33.991Z,100866.92
2023-05-07T08:40:41.265Z,100869.47
2023-05-07T08:41:46.331Z,100876.52
2023-05-07T08:42:51.149Z,100864.78
2023-05-07T08:45:09.907Z,100855.66
2023-05-07T08:46:28.293Z,100866.38
2023-05-07T08:48:54.179Z,100879.38
2023-05-07T08:49:56.511Z,100868.61
2023-05-07T08:51:00.694Z,100872.11
2023-05-07T08:52:04.575Z,100858.55
2023-05-07T08:53:08.193Z,100861.13
2023-05-07T08:54:17.749Z,100852.91
2023-05-07T08:55:21.368Z,100850.97
2023-05-07T08:56:26.123Z,100856.94
2023-05-07T08:57:28.921Z,100875.41
2023-05-07T08:59:41.560Z,100858.27
2023-05-07T09:00:44.672Z,100866.20
2023-05-07T09:01:47.562Z,100854.66
2023-05-07T09:02:50.850Z,100867.06
2023-05-07T09:03:55.153Z,100863.53
2023-05-07T09:04:58.200Z,100859.78
2023-05-07T09:06:01.482Z,100862.58
2023-05-07T09:07:06.133Z,100869.51
2023-05-07T09:08:10.155Z,100867.57
2023-05-07T09:09:18.201Z,100862.97
2023-05-07T09:10:21.718Z,100873.64
2023-05-07T09:11:26.280Z,100870.11
2023-05-07T09:12:33.328Z,100868.30
2023-05-07T09:13:36.230Z,100851.56
2023-05-07T09:14:39.170Z,100872.05
2023-05-07T09:16:54.576Z,100866.91
2023-05-07T09:18:00.105Z,100870.59
2023-05-07T09:19:02.740Z,100881.27
2023-05-07T09:20:09.340Z,100874.08
2023-05-07T09:21:20.865Z,100867.06
2023-05-07T09:22:24.636Z,100866.94
2023-05-07T09:23:29.759Z,100869.73
2023-05-07T09:24:32.157Z,100864.39
2023-05-07T09:25:35.929Z,100867.16
2023-05-07T09:26:41.138Z,100866.42
2023-05-07T09:27:43.876Z,100864.61
2023-05-07T09:28:48.023Z,100867.28
2023-05-07T09:29:51.047Z,100874.55
2023-05-07T09:30:53.394Z,100867.49
2023-05-07T09:31:57.779Z,100874.55
2023-05-07T09:34:11.373Z,100858.70
2023-05-07T09:35:17.285Z,100871.97
2023-05-07T09:36:22.388Z,100866.55
2023-05-07T09:37:26.884Z,100859.39
2023-05-07T09:38:30.148Z,100867.28
2023-05-07T09:39:44.523Z,100872.48
2023-05-07T09:41:08.485Z,100875.92
2023-05-07T09:42:14.357Z,100873.12
2023-05-07T09:43:16.877Z,100872.91
2023-05-07T09:44:24.065Z,100877.39
2023-05-07T09:45:29.192Z,100871.10
2023-05-07T09:46:33.869Z,100873.64
2023-05-07T09:47:39.769Z,100862.88
2023-05-07T09:48:45.524Z,100861.06
2023-05-07T09:51:10.808Z,100867.94
2023-05-07T09:52:15.057Z,100866.91
2023-05-07T09:53:19.079Z,100882.71
2023-05-07T09:54:23.235Z,100871.05
2023-05-07T09:56:37.660Z,100870.89
2023-05-07T09:57:42.634Z,100871.69
2023-05-07T09:58:46.360Z,100877.76
2023-05-07T09:59:50.969Z,100874.99
2023-05-07T10:01:00.154Z,100882.02
2023-05-07T10:02:05.383Z,100872.20
2023-05-07T10:03:10.029Z,100875.82
2023-05-07T10:05:26.704Z,100881.23
2023-05-07T10:06:31.148Z,100877.88
2023-05-07T10:07:36.416Z,100873.50
2023-05-07T10:08:44.755Z,100875.22
2023-05-07T10:09:49.162Z,100865.48
2023-05-07T10:10:54.238Z,100868.28
2023-05-07T10:11:59.514Z,100863.90
2023-05-07T10:13:03.345Z,100860.27
2023-05-07T10:14:15.686Z,100860.15
2023-05-07T10:15:20.508Z,100851.91
2023-05-07T10:17:41.166Z,100848.95
2023-05-07T10:18:46.966Z,100843.33
2023-05-07T10:19:51.233Z,100844.92
2023-05-07T10:20:59.759Z,100845.55
2023-05-07T10:23:26.922Z,100851.36
2023-05-07T10:24:36.512Z,100841.45
2023-05-07T10:25:44.256Z,100842.20
2023-05-07T10:26:51.789Z,100840.49
2023-05-07T10:27:56.491Z,100834.19
2023-05-07T10:29:04.363Z,100835.05
2023-05-07T10:30:27.599Z,100830.44
2023-05-07T10:31:53.971Z,100836.64
2023-05-07T10:32:57.692Z,100823.16
2023-05-07T10:34:05.627Z,100832.88
2023-05-07T10:36:23.014Z,100822.47
2023-05-07T10:37:27.835Z,100820.84
2023-05-07T10:38:31.653Z,100832.38
2023-05-07T10:40:48.247Z,100824.52
2023-05-07T10:41:53.585Z,100822.75
2023-05-07T10:44:09.367Z,100825.37
2023-05-07T10:45:13.597Z,100818.27
2023-05-07T10:46:26.990Z,100820.84
2023-05-07T10:48:29.007Z,100809.16
2023-05-07T10:49:25.846Z,100818.04
2023-05-07T10:50:30.242Z,100811.74
2023-05-07T10:51:35.112Z,100810.75
2023-05-07T10:52:39.734Z,100822.30
2023-05-07T10:53:47.579Z,100816.09
2023-05-07T10:55:19.667Z,100813.33
2023-05-07T10:56:29.066Z,100810.42
2023-05-07T10:57:47.431Z,100804.00
2023-05-07T11:00:38.880Z,100804.30
2023-05-07T11:03:08.274Z,100808.23
2023-05-07T11:04:32.064Z,100798.33
2023-05-07T11:05:43.131Z,100801.73
2023-05-07T11:07:10.580Z,100804.17
2023-05-07T11:08:15.258Z,100795.19
2023-05-07T11:09:21.140Z,100815.52
2023-05-07T11:12:02.281Z,100801.09
2023-05-07T11:13:06.318Z,100815.28
2023-05-07T11:15:48.586Z,100805.58
2023-05-07T11:17:02.224Z,100818.91
2023-05-07T11:18:04.675Z,100817.95
2023-05-07T11:19:09.060Z,100804.46
2023-05-07T11:20:14.193Z,100799.02
2023-05-07T11:22:49.543Z,100794.42
2023-05-07T11:23:55.922Z,100786.14
2023-05-07T11:25:04.181Z,100787.00
2023-05-07T11:26:09.052Z,100789.44
2023-05-07T11:29:39.412Z,100783.98
2023-05-07T11:30:49.583Z,100783.10
2023-05-07T11:31:57.495Z,100780.43
2023-05-07T11:33:07.160Z,100779.47
2023-05-07T11:34:11.938Z,100784.69
2023-05-07T11:35:16.254Z,100794.42
2023-05-07T11:36:19.786Z,100795.14
2023-05-07T11:37:26.778Z,100796.95
2023-05-07T11:38:33.688Z,100796.86
2023-05-07T11:39:35.951Z,100796.86
2023-05-07T11:40:58.864Z,100792.37
2023-05-07T11:42:01.704Z,100792.23
2023-05-07T11:43:13.971Z,100789.56
2023-05-07T11:44:17.834Z,100791.14
2023-05-07T11:45:27.712Z,100800.02
2023-05-07T11:46:30.350Z,100789.45
2023-05-07T11:47:38.911Z,100791.27
2023-05-07T11:48:44.933Z,100793.71
2023-05-07T11:49:50.231Z,100789.94
2023-05-07T11:50:55.244Z,100787.13
2023-05-07T11:51:57.527Z,100799.55
2023-05-07T11:53:00.161Z,100788.72
2023-05-07T11:54:04.544Z,100796.73
2023-05-07T11:55:07.852Z,100790.43
2023-05-07T11:57:25.281Z,100792.25
2023-05-07T11:58:29.377Z,100796.02
2023-05-07T11:59:41.384Z,100790.80
2023-05-07T12:02:05.776Z,100794.55
2023-05-07T12:03:09.013Z,100793.95
2023-05-07T12:04:15.336Z,100788.60
2023-05-07T12:05:21.212Z,100794.91
2023-05-07T12:06:29.229Z,100791.27
2023-05-07T12:07:34.629Z,100796.63
2023-05-07T12:08:40.768Z,100796.48
2023-05-07T12:09:45.451Z,100792.86
2023-05-07T12:10:52.093Z,100795.53
2023-05-07T12:11:54.539Z,100796.39
2023-05-07T12:12:57.799Z,100789.19
2023-05-07T12:14:01.785Z,100793.58
2023-05-07T12:15:07.797Z,100789.09
2023-05-07T12:16:10.447Z,100787.38
2023-05-07T12:18:18.119Z,100778.63
2023-05-07T12:19:21.925Z,100775.23
2023-05-07T12:20:24.521Z,100784.21
2023-05-07T12:21:28.105Z,100779.00
2023-05-07T12:23:40.623Z,100772.67
2023-05-07T12:26:03.857Z,100771.95
2023-05-07T12:27:07.748Z,100778.24
2023-05-07T12:28:13.003Z,100777.42
2023-05-07T12:29:18.406Z,100773.75
2023-05-07T12:30:21.137Z,100773.75
2023-05-07T12:31:23.354Z,100779.10
2023-05-07T12:32:25.501Z,100775.57
2023-05-07T12:33:28.807Z,100771.08
2023-05-07T12:34:31.935Z,100772.90
2023-05-07T12:35:44.425Z,100763.91
2023-05-07T12:36:48.789Z,100767.69
2023-05-07T12:37:59.795Z,100764.05
2023-05-07T12:39:02.426Z,100768.54
2023-05-07T12:41:21.525Z,100758.81
2023-05-07T12:42:31.519Z,100765.97
2023-05-07T12:43:34.241Z,100765.97
2023-05-07T12:44:36.324Z,100765.02
2023-05-07T12:45:39.300Z,100757.95
2023-05-07T12:46:43.946Z,100763.30
2023-05-07T12:47:47.194Z,100757.95
2023-05-07T12:48:49.427Z,100765.97
2023-05-07T12:49:52.454Z,100768.64
2023-05-07T12:50:55.978Z,100765.11
2023-05-07T12:52:18.431Z,100768.54
2023-05-07T12:53:27.647Z,100771.08
2023-05-07T12:55:50.280Z,100763.79
2023-05-07T12:57:03.876Z,100761.11
2023-05-07T12:58:07.135Z,100764.64
2023-05-07T12:59:11.651Z,100764.41
2023-05-07T13:00:15.601Z,100765.26
2023-05-07T13:01:18.422Z,100759.91
2023-05-07T13:02:20.853Z,100767.94
2023-05-07T13:03:30.458Z,100764.30
2023-05-07T13:04:35.674Z,100767.08
2023-05-07T13:05:38.615Z,100760.05
2023-05-07T13:06:41.060Z,100756.52
2023-05-07T13:07:46.889Z,100765.50
2023-05-07T13:08:50.389Z,100760.15
2023-05-07T13:09:53.189Z,100763.69
2023-05-07T13:10:59.605Z,100770.84
2023-05-07T13:12:01.763Z,100762.83